Time;durP1;ratioP1;P1;durP2;ratioP2;P2;SDS_P1;SDS_P2;PMS_P1;PMS_P2;Temp;Humidity;BMP_temperature;BMP_pressure;BME280_temperature;BME280_humidity;BME280_pressure;Samples;Min_cycle;Max_cycle;Signal;HPM_P1;HPM_P2
2022/06/17 17:18:00;;;;;;;;;;;;;;;24.57;48.06;101584.81;1039329;27;3831;-69
2022/06/17 17:18:52;;;;;;;;;;;;;;;24.97;46.99;101583.06;1046820;28;1213;-69
2022/06/17 17:19:44;;;;;;;;;;;;;;;25.22;46.60;101588.25;1045927;28;1060;-68
2022/06/17 17:20:34;;;;;;;;;;;;;;;25.41;45.69;101575.19;1049300;28;943;-69
2022/06/17 17:21:26;;;;;;;;;;;;;;;25.52;46.92;101582.97;1046812;28;869;-69
2022/06/17 17:22:16;;;;;;;;;;;;;;;25.60;48.03;101586.53;1053370;28;1237;-69
2022/06/17 17:23:07;;;;;;;;;;;;;;;25.68;48.84;101577.44;1042019;28;973;-69
2022/06/17 17:23:57;;;;;;;;;;;;;;;25.74;48.50;101576.75;1040398;28;1115;-69
2022/06/17 17:24:48;;;;;;;;;;;;;;;25.78;49.63;101571.78;1051337;28;932;-69
2022/06/17 17:25:40;;;;;;;;;;;;;;;25.81;51.16;101577.69;1050154;28;1051;-69
2022/06/17 17:26:30;;;;;;;;;;;;;;;25.80;54.70;101575.13;1051142;28;932;-69
2022/06/17 17:27:21;;;;;;;;;;;;;;;25.75;55.85;101572.97;1051495;28;1032;-69
2022/06/17 17:28:12;;;;;;;;;;;;;;;25.74;56.69;101570.44;1050976;28;997;-71
2022/06/17 17:29:02;;;;;;;;;;;;;;;25.63;59.58;101568.94;1049153;28;1232;-69
2022/06/17 17:29:54;;;;;;;;;;;;;;;25.59;56.94;101568.44;1044530;28;989;-68
2022/06/17 17:30:46;;;;;;;;;;;;;;;25.57;56.32;101570.50;1053953;28;634;-69
2022/06/17 17:31:36;;;;;;;;;;;;;;;25.54;54.32;101570.00;1048952;28;1067;-69
2022/06/17 17:32:26;;;;;;;;;;;;;;;25.46;54.15;101572.75;1048030;28;1163;-68
2022/06/17 17:33:17;;;;;;;;;;;;;;;25.44;53.56;101578.41;1049879;28;913;-69
2022/06/17 17:34:07;;;;;;;;;;;;;;;25.46;53.21;101572.75;1053099;28;1161;-69
2022/06/17 17:34:58;;;;;;;;;;;;;;;25.50;52.33;101565.94;1051268;28;953;-68
2022/06/17 17:35:49;;;;;;;;;;;;;;;25.53;52.17;101565.56;1052491;28;1011;-70
2022/06/17 17:36:39;;;;;;;;;;;;;;;25.58;51.58;101572.19;1048934;28;1083;-69
2022/06/17 17:37:31;;;;;;;;;;;;;;;25.73;50.12;101574.19;1049243;28;1898;-70
2022/06/17 17:38:21;;;;;;;;;;;;;;;25.81;49.53;101572.22;1047873;28;1031;-69
2022/06/17 17:39:12;;;;;;;;;;;;;;;25.89;48.94;101566.72;1048719;28;1016;-69
2022/06/17 17:40:03;;;;;;;;;;;;;;;25.91;47.52;101566.53;1051001;28;1040;-69
2022/06/17 17:41:23;;;;;;;;;;;;;;;25.94;48.23;101568.91;1048767;28;1140;-70
2022/06/17 17:42:04;;;;;;;;;;;;;;;25.96;47.52;101566.84;1051340;28;1183;-69
2022/06/17 17:42:54;;;;;;;;;;;;;;;25.98;46.61;101566.69;1052562;28;1058;-69
2022/06/17 17:43:45;;;;;;;;;;;;;;;25.99;46.29;101562.88;1053491;28;1147;-68
2022/06/17 17:44:38;;;;;;;;;;;;;;;25.94;46.56;101563.44;1052794;28;1225;-69
2022/06/17 17:45:28;;;;;;;;;;;;;;;25.83;46.72;101559.25;1051178;28;1293;-70
2022/06/17 17:46:19;;;;;;;;;;;;;;;25.80;46.84;101565.06;1046993;28;1060;-69
2022/06/17 17:47:09;;;;;;;;;;;;;;;25.82;46.38;101557.53;1048270;28;1047;-68
2022/06/17 17:47:59;;;;;;;;;;;;;;;25.89;46.53;101557.69;1053429;28;1050;-70
2022/06/17 17:48:50;;;;;;;;;;;;;;;25.91;46.28;101556.47;1049117;28;1105;-70
2022/06/17 17:49:40;;;;;;;;;;;;;;;25.96;45.95;101555.09;1050772;28;1187;-69
2022/06/17 17:50:32;;;;;;;;;;;;;;;25.97;45.61;101554.91;1051626;28;1089;-69
2022/06/17 17:51:23;;;;;;;;;;;;;;;25.98;45.94;101558.47;1052594;28;1103;-70
2022/06/17 17:52:13;;;;;;;;;;;;;;;25.99;45.39;101562.88;1051309;28;1105;-69
2022/06/17 17:53:04;;;;;;;;;;;;;;;25.92;45.64;101555.44;1046143;28;1136;-69
2022/06/17 17:53:54;;;;;;;;;;;;;;;25.92;45.98;101552.72;1047367;28;1123;-69
2022/06/17 17:54:45;;;;;;;;;;;;;;;25.91;45.43;101552.88;1045955;28;1120;-69
2022/06/17 17:55:35;;;;;;;;;;;;;;;25.87;46.05;101552.41;1041430;28;1146;-69
2022/06/17 17:56:26;;;;;;;;;;;;;;;25.91;45.76;101552.88;1044464;28;1223;-69
2022/06/17 17:57:16;;;;;;;;;;;;;;;25.93;46.09;101551.69;1043519;28;653;-69
2022/06/17 17:58:07;;;;;;;;;;;;;;;25.85;46.10;101550.88;1044950;28;905;-70
2022/06/17 17:58:57;;;;;;;;;;;;;;;25.82;46.39;101549.34;1045466;28;776;-69
2022/06/17 17:59:48;;;;;;;;;;;;;;;25.84;45.86;101547.28;1045706;28;618;-69
2022/06/17 18:00:38;;;;;;;;;;;;;;;25.67;47.20;101553.91;1045073;28;681;-69
2022/06/17 18:01:31;;;;;;;;;;;;;;;25.69;46.82;101546.38;1048986;28;1327;-69
2022/06/17 18:02:22;;;;;;;;;;;;;;;25.75;46.34;101547.56;1045291;28;1270;-70
2022/06/17 18:03:13;;;;;;;;;;;;;;;25.80;46.14;101545.94;1043881;28;1145;-70
2022/06/17 18:04:03;;;;;;;;;;;;;;;25.86;45.94;101553.44;1045867;28;1145;-71
2022/06/17 18:04:56;;;;;;;;;;;;;;;25.94;46.11;101549.81;1046162;28;1207;-71
2022/06/17 18:05:46;;;;;;;;;;;;;;;26.01;45.81;101555.34;1046844;28;1195;-70
2022/06/17 18:06:36;;;;;;;;;;;;;;;26.04;45.51;101553.13;1049651;28;1082;-70
2022/06/17 18:07:27;;;;;;;;;;;;;;;26.08;45.38;101551.72;1049320;28;645;-70
2022/06/17 18:08:17;;;;;;;;;;;;;;;26.06;45.28;101548.31;1049404;28;597;-70
2022/06/17 18:09:08;;;;;;;;;;;;;;;26.06;45.46;101552.94;1050494;28;660;-68
2022/06/17 18:09:58;;;;;;;;;;;;;;;26.09;45.87;101547.97;1049117;28;763;-70
2022/06/17 18:10:49;;;;;;;;;;;;;;;26.08;45.08;101545.41;1050136;28;668;-71
2022/06/17 18:11:39;;;;;;;;;;;;;;;26.04;45.63;101549.53;1049907;28;701;-72
2022/06/17 18:12:30;;;;;;;;;;;;;;;26.01;45.30;101558.94;1049265;28;665;-72
2022/06/17 18:13:20;;;;;;;;;;;;;;;26.03;45.79;101550.56;1044757;28;693;-71
2022/06/17 18:14:10;;;;;;;;;;;;;;;26.03;45.64;101545.94;1040343;28;634;-72
2022/06/17 18:15:01;;;;;;;;;;;;;;;26.01;45.21;101545.28;1040619;28;713;-73
2022/06/17 18:15:52;;;;;;;;;;;;;;;26.02;45.37;101546.97;1046016;28;671;-72
2022/06/17 18:16:42;;;;;;;;;;;;;;;26.02;45.50;101548.88;1045055;28;630;-72
2022/06/17 18:17:33;;;;;;;;;;;;;;;26.01;45.03;101542.56;1045462;28;1964;-71
2022/06/17 18:18:24;;;;;;;;;;;;;;;25.96;45.50;101539.53;1041859;28;1852;-69
2022/06/17 18:19:14;;;;;;;;;;;;;;;25.93;45.68;101540.75;1042520;28;741;-70
2022/06/17 18:20:05;;;;;;;;;;;;;;;25.90;46.05;101543.00;1045277;28;748;-69
2022/06/17 18:20:55;;;;;;;;;;;;;;;25.73;47.59;101539.53;1046121;28;635;-71
2022/06/17 18:21:46;;;;;;;;;;;;;;;25.75;47.46;101539.38;1040651;28;632;-72
2022/06/17 18:22:36;;;;;;;;;;;;;;;25.79;46.26;101537.97;1043812;28;1071;-72
2022/06/17 18:23:28;;;;;;;;;;;;;;;25.73;47.44;101541.41;1048414;28;1127;-70
2022/06/17 18:24:19;;;;;;;;;;;;;;;25.62;47.86;101548.13;1044353;28;1150;-71
2022/06/17 18:25:09;;;;;;;;;;;;;;;25.56;47.94;101538.78;1042703;28;650;-72
2022/06/17 18:26:00;;;;;;;;;;;;;;;25.59;47.67;101543.88;1049530;28;669;-74
2022/06/17 18:26:50;;;;;;;;;;;;;;;25.66;47.07;101538.56;1048925;28;784;-72
2022/06/17 18:27:40;;;;;;;;;;;;;;;25.73;47.36;101544.16;1046834;28;1700;-72
2022/06/17 18:28:31;;;;;;;;;;;;;;;25.81;46.90;101538.63;1047107;28;1445;-71
2022/06/17 18:29:21;;;;;;;;;;;;;;;25.89;46.77;101544.03;1039989;28;1618;-71
2022/06/17 18:30:12;;;;;;;;;;;;;;;25.92;46.28;101541.78;1044687;28;980;-72
2022/06/17 18:31:02;;;;;;;;;;;;;;;25.99;46.27;101541.03;1047492;28;696;-72
2022/06/17 18:31:53;;;;;;;;;;;;;;;26.01;45.92;101539.81;1046369;28;1091;-72
2022/06/17 18:32:43;;;;;;;;;;;;;;;25.95;46.51;101540.56;1049402;28;1038;-72
2022/06/17 18:33:34;;;;;;;;;;;;;;;25.89;46.41;101542.16;1048769;28;1007;-72
2022/06/17 18:34:25;;;;;;;;;;;;;;;25.90;46.41;101549.31;1051449;28;1004;-73
2022/06/17 18:35:16;;;;;;;;;;;;;;;25.93;46.03;101542.63;1050821;28;1117;-72
2022/06/17 18:36:12;;;;;;;;;;;;;;;25.94;46.07;101545.19;1047780;28;1095;-74
2022/06/17 18:37:02;;;;;;;;;;;;;;;25.99;46.15;101532.84;1046377;28;1046;-72
2022/06/17 18:37:53;;;;;;;;;;;;;;;25.98;45.91;101523.78;1045058;28;1918;-72
2022/06/17 18:38:43;;;;;;;;;;;;;;;25.89;46.33;101535.84;1048825;28;1114;-72
2022/06/17 18:39:34;;;;;;;;;;;;;;;25.84;46.33;101530.91;1046693;28;985;-72
2022/06/17 18:40:24;;;;;;;;;;;;;;;25.70;46.82;101539.03;1045002;28;1074;-72
2022/06/17 18:42:36;;;;;;;;;;;;;;;25.84;46.45;101528.19;1045222;28;1457;-72
2022/06/17 18:43:26;;;;;;;;;;;;;;;25.92;46.39;101530.84;1047979;28;945;-73
2022/06/17 18:44:17;;;;;;;;;;;;;;;25.84;46.78;101533.63;1045156;28;1109;-73
2022/06/17 18:45:07;;;;;;;;;;;;;;;25.72;47.25;101535.09;1043286;28;930;-72
2022/06/17 18:45:58;;;;;;;;;;;;;;;25.71;46.88;101533.41;1042641;28;1027;-73
2022/06/17 18:46:48;;;;;;;;;;;;;;;25.75;46.68;101532.03;1044994;28;1120;-72
2022/06/17 18:47:38;;;;;;;;;;;;;;;25.81;46.56;101534.00;1046552;28;700;-73
2022/06/17 18:48:30;;;;;;;;;;;;;;;25.88;46.59;101528.66;1041454;28;866;-73
2022/06/17 18:49:20;;;;;;;;;;;;;;;25.91;46.10;101534.63;1042027;28;677;-73
2022/06/17 18:50:10;;;;;;;;;;;;;;;25.93;46.42;101532.56;1049152;28;1115;-73
2022/06/17 18:51:01;;;;;;;;;;;;;;;25.93;46.25;101520.78;1046765;28;733;-73
2022/06/17 18:51:51;;;;;;;;;;;;;;;25.62;47.24;101529.03;1046940;28;1016;-73
2022/06/17 18:52:42;;;;;;;;;;;;;;;25.67;47.01;101523.03;1051361;28;1189;-73
2022/06/17 18:53:32;;;;;;;;;;;;;;;25.75;46.77;101523.81;1047779;28;1023;-73
2022/06/17 18:54:23;;;;;;;;;;;;;;;25.78;46.63;101526.19;1047591;28;1111;-72
2022/06/17 18:55:13;;;;;;;;;;;;;;;25.85;46.66;101523.56;1048655;28;1059;-73
2022/06/17 18:56:03;;;;;;;;;;;;;;;25.92;46.64;101525.41;1045795;28;1159;-73
2022/06/17 18:56:54;;;;;;;;;;;;;;;25.90;46.35;101526.59;1046008;28;1135;-72
2022/06/17 18:57:44;;;;;;;;;;;;;;;25.71;46.98;101521.63;1041656;28;1930;-72
2022/06/17 18:58:35;;;;;;;;;;;;;;;25.78;46.88;101518.00;1043172;28;993;-72
2022/06/17 18:59:26;;;;;;;;;;;;;;;25.85;46.48;101524.41;1049066;28;638;-71
2022/06/17 19:00:16;;;;;;;;;;;;;;;25.92;46.49;101521.81;1046477;28;1182;-71
2022/06/17 19:01:07;;;;;;;;;;;;;;;25.96;46.62;101525.03;1048361;28;1198;-72
2022/06/17 19:01:57;;;;;;;;;;;;;;;25.99;46.49;101519.19;1048081;28;1178;-72
2022/06/17 19:02:49;;;;;;;;;;;;;;;25.95;46.45;101524.19;1041697;28;1047;-71
2022/06/17 19:03:39;;;;;;;;;;;;;;;25.85;46.66;101524.41;1040070;28;1017;-72
2022/06/17 19:04:30;;;;;;;;;;;;;;;25.85;46.81;101518.09;1045310;28;948;-72
2022/06/17 19:05:21;;;;;;;;;;;;;;;25.88;46.24;101523.22;1043354;28;1131;-72
2022/06/17 19:06:11;;;;;;;;;;;;;;;25.81;46.51;101514.88;1046101;28;1121;-71
2022/06/17 19:07:02;;;;;;;;;;;;;;;25.79;46.56;101519.72;1049207;28;996;-71
2022/06/17 19:17:28;;;;;;;;;;;;;;;26.00;46.64;101510.81;1048046;28;1060;-71
2022/06/17 19:18:18;;;;;;;;;;;;;;;25.85;49.12;101513.50;1047308;28;622;-71
2022/06/17 19:19:09;;;;;;;;;;;;;;;25.88;47.49;101513.13;1039044;28;954;-72
2022/06/17 19:19:59;;;;;;;;;;;;;;;25.88;47.19;101513.13;1038674;28;598;-72
2022/06/17 19:20:50;;;;;;;;;;;;;;;25.93;46.89;101513.44;1045012;28;1067;-72
2022/06/17 19:21:40;;;;;;;;;;;;;;;25.96;46.37;101516.84;1040509;28;1100;-72
2022/06/17 19:22:31;;;;;;;;;;;;;;;25.93;46.99;101516.16;1041646;28;1165;-72
2022/06/17 19:23:21;;;;;;;;;;;;;;;25.92;46.46;101511.75;1049132;28;1094;-72
2022/06/17 19:24:12;;;;;;;;;;;;;;;25.87;47.04;101507.84;1048066;28;1054;-72
2022/06/17 19:25:03;;;;;;;;;;;;;;;25.85;47.47;101518.09;1044098;28;799;-71
2022/06/17 19:25:54;;;;;;;;;;;;;;;25.61;48.02;101513.66;1044921;28;1067;-72
2022/06/17 19:26:45;;;;;;;;;;;;;;;25.44;48.26;101509.34;1049768;28;1118;-72
2022/06/17 19:27:37;;;;;;;;;;;;;;;25.47;48.29;101514.41;1047888;28;1102;-72
2022/06/17 19:28:27;;;;;;;;;;;;;;;25.59;47.79;101516.56;1045962;28;1095;-72
2022/06/17 19:29:21;;;;;;;;;;;;;;;25.70;47.48;101514.47;1049431;28;1000;-72
2022/06/17 19:30:11;;;;;;;;;;;;;;;25.75;47.42;101509.31;1047471;28;706;-72
2022/06/17 19:31:02;;;;;;;;;;;;;;;25.63;47.91;101513.50;1047211;28;965;-73
2022/06/17 19:31:53;;;;;;;;;;;;;;;25.67;47.45;101510.22;1051625;28;1027;-72
2022/06/17 19:32:44;;;;;;;;;;;;;;;25.64;47.77;101509.72;1049795;28;980;-72
2022/06/17 19:33:34;;;;;;;;;;;;;;;25.66;47.56;101513.13;1049652;28;1050;-71
2022/06/17 19:34:25;;;;;;;;;;;;;;;25.71;47.37;101519.75;1045763;28;1080;-72
2022/06/17 19:35:15;;;;;;;;;;;;;;;25.63;48.02;101516.22;1048658;28;1087;-71
2022/06/17 19:36:06;;;;;;;;;;;;;;;25.55;47.84;101523.41;1043131;28;1230;-72
2022/06/17 19:36:56;;;;;;;;;;;;;;;25.64;47.71;101516.03;1050626;28;1082;-71
2022/06/17 19:37:47;;;;;;;;;;;;;;;25.69;47.26;101515.50;1050896;28;1967;-72
2022/06/17 19:38:38;;;;;;;;;;;;;;;25.69;47.55;101512.78;1050048;28;1172;-72
2022/06/17 19:39:29;;;;;;;;;;;;;;;25.68;47.63;101516.53;1049012;28;1101;-72
2022/06/17 19:40:19;;;;;;;;;;;;;;;25.61;48.10;101510.94;1039840;28;1136;-71
2022/06/17 19:42:19;;;;;;;;;;;;;;;25.66;47.62;101507.66;1045594;28;1217;-71
2022/06/17 19:43:09;;;;;;;;;;;;;;;25.70;47.56;101515.31;1044832;28;973;-72
2022/06/17 19:44:00;;;;;;;;;;;;;;;25.69;47.82;101513.63;1044245;28;1160;-72
2022/06/17 19:44:50;;;;;;;;;;;;;;;25.50;48.09;101524.97;1044051;28;1049;-72
2022/06/17 19:45:40;;;;;;;;;;;;;;;25.43;48.30;101516.69;1045452;28;1098;-72
2022/06/17 19:46:31;;;;;;;;;;;;;;;25.56;48.00;101518.81;1041767;28;1087;-72
2022/06/17 19:47:21;;;;;;;;;;;;;;;25.70;47.75;101517.19;1050001;28;692;-72
2022/06/17 19:48:12;;;;;;;;;;;;;;;25.77;47.46;101512.72;1049606;28;1113;-72
2022/06/17 19:49:03;;;;;;;;;;;;;;;25.76;47.40;101517.34;1048415;28;1075;-72
2022/06/17 19:49:54;;;;;;;;;;;;;;;25.75;47.42;101521.09;1042823;28;1063;-72
2022/06/17 19:50:44;;;;;;;;;;;;;;;25.67;48.13;101518.41;1041996;28;1123;-72
2022/06/17 19:51:35;;;;;;;;;;;;;;;25.59;47.99;101518.47;1048252;28;1175;-72
2022/06/17 19:52:25;;;;;;;;;;;;;;;25.66;47.70;101518.59;1047563;28;1226;-72
2022/06/17 19:53:16;;;;;;;;;;;;;;;25.76;47.92;101524.69;1042346;28;1178;-72
2022/06/17 19:54:06;;;;;;;;;;;;;;;25.83;47.47;101523.75;1034027;28;673;-72
2022/06/17 19:54:57;;;;;;;;;;;;;;;25.79;47.26;101514.25;1040583;28;1110;-72
2022/06/17 19:55:47;;;;;;;;;;;;;;;25.81;47.25;101523.06;1045886;28;1111;-72
2022/06/17 19:56:39;;;;;;;;;;;;;;;25.76;47.63;101525.53;1049232;28;1121;-72
2022/06/17 19:57:30;;;;;;;;;;;;;;;25.73;47.53;101523.16;1043034;28;1076;-72
2022/06/17 19:58:20;;;;;;;;;;;;;;;25.79;47.39;101525.16;1040594;28;1158;-72
2022/06/17 19:59:11;;;;;;;;;;;;;;;25.84;47.37;101527.31;1044690;28;1042;-71
2022/06/17 20:00:01;;;;;;;;;;;;;;;25.79;47.51;101518.84;1044761;28;1453;-72
2022/06/17 20:00:52;;;;;;;;;;;;;;;25.73;47.66;101530.50;1048939;28;945;-72
2022/06/17 20:01:42;;;;;;;;;;;;;;;25.75;47.47;101523.81;1043974;28;1043;-72
2022/06/17 20:02:32;;;;;;;;;;;;;;;25.72;47.73;101529.66;1041504;28;1135;-72
2022/06/17 20:03:23;;;;;;;;;;;;;;;25.58;48.54;101522.22;1048243;28;1063;-72
2022/06/17 20:04:14;;;;;;;;;;;;;;;25.58;48.34;101533.97;1046913;28;1138;-72
2022/06/17 20:05:05;;;;;;;;;;;;;;;25.59;47.98;101529.38;1044512;28;1158;-72
2022/06/17 20:05:56;;;;;;;;;;;;;;;25.62;47.78;101533.63;1042730;28;1090;-72
2022/06/17 20:06:46;;;;;;;;;;;;;;;25.67;47.89;101523.03;1040128;28;1063;-72
2022/06/17 20:07:37;;;;;;;;;;;;;;;25.70;47.41;101531.72;1047847;28;1894;-72
2022/06/17 20:08:27;;;;;;;;;;;;;;;25.57;48.62;101528.69;1048649;28;1223;-72
2022/06/17 20:09:19;;;;;;;;;;;;;;;25.57;48.55;101534.16;1044078;28;650;-72
2022/06/17 20:10:10;;;;;;;;;;;;;;;25.68;48.19;101532.91;1041736;28;1104;-72
2022/06/17 20:11:01;;;;;;;;;;;;;;;25.75;48.00;101532.03;1042952;28;630;-73
2022/06/17 20:11:52;;;;;;;;;;;;;;;25.81;47.55;101531.28;1043490;28;1608;-72
2022/06/17 20:12:42;;;;;;;;;;;;;;;25.72;47.86;101534.25;1047093;28;1012;-73
2022/06/17 20:13:32;;;;;;;;;;;;;;;25.72;47.91;101529.66;1042456;28;591;-71
2022/06/17 20:14:23;;;;;;;;;;;;;;;25.73;47.86;101527.75;1044494;28;694;-71
2022/06/17 20:15:13;;;;;;;;;;;;;;;25.73;47.78;101527.75;1053887;28;701;-71
2022/06/17 20:16:04;;;;;;;;;;;;;;;25.67;47.93;101532.06;1052781;28;689;-71
2022/06/17 20:16:54;;;;;;;;;;;;;;;25.65;48.42;101528.66;1048982;28;701;-71
2022/06/17 20:17:44;;;;;;;;;;;;;;;25.45;50.40;101538.31;1052190;28;1271;-71
2022/06/17 20:18:35;;;;;;;;;;;;;;;25.39;50.40;101536.31;1050203;28;732;-70
2022/06/17 20:19:26;;;;;;;;;;;;;;;25.38;50.27;101531.88;1050573;28;622;-71
2022/06/17 20:20:16;;;;;;;;;;;;;;;25.49;49.32;101534.19;1046188;28;689;-71
2022/06/17 20:21:07;;;;;;;;;;;;;;;25.49;50.01;101529.59;1040483;28;1063;-71
2022/06/17 20:21:58;;;;;;;;;;;;;;;25.42;51.05;101530.50;1038607;28;1075;-71
2022/06/17 20:22:51;;;;;;;;;;;;;;;25.38;51.00;101532.75;1046215;28;1435;-70
2022/06/17 20:23:42;;;;;;;;;;;;;;;25.39;50.68;101528.13;1045001;28;1116;-72
2022/06/17 20:24:33;;;;;;;;;;;;;;;25.33;51.36;101517.94;1045995;28;1201;-72
2022/06/17 20:25:23;;;;;;;;;;;;;;;25.29;51.39;101530.22;1046502;28;1078;-72
2022/06/17 20:26:14;;;;;;;;;;;;;;;25.21;51.58;101522.94;1043032;28;1079;-71
2022/06/17 20:27:04;;;;;;;;;;;;;;;25.15;52.10;101521.78;1041992;28;1123;-73
2022/06/17 20:27:55;;;;;;;;;;;;;;;25.17;51.51;101525.19;1040877;28;1906;-73
2022/06/17 20:28:46;;;;;;;;;;;;;;;25.19;51.49;101517.66;1043565;28;1142;-71
2022/06/17 20:29:36;;;;;;;;;;;;;;;25.18;51.96;101520.56;1046752;28;1079;-71
2022/06/17 20:30:27;;;;;;;;;;;;;;;25.14;51.78;101520.06;1040411;28;1178;-71
2022/06/17 20:31:17;;;;;;;;;;;;;;;25.11;51.98;101523.16;1041728;28;1158;-72
2022/06/17 20:32:08;;;;;;;;;;;;;;;25.00;52.42;101525.44;1045958;28;1218;-72
2022/06/17 20:32:59;;;;;;;;;;;;;;;24.99;52.38;101521.84;1043393;28;1063;-71
2022/06/17 20:33:50;;;;;;;;;;;;;;;25.04;52.12;101521.34;1046189;28;1229;-71
2022/06/17 20:34:40;;;;;;;;;;;;;;;25.01;52.24;101522.53;1041181;28;1048;-71
2022/06/17 20:35:31;;;;;;;;;;;;;;;25.00;51.98;101523.56;1039490;28;1068;-71
2022/06/17 20:36:21;;;;;;;;;;;;;;;25.03;52.12;101522.34;1044675;28;1083;-72
2022/06/17 20:37:12;;;;;;;;;;;;;;;25.03;52.03;101519.63;1044669;28;1110;-72
2022/06/17 20:38:02;;;;;;;;;;;;;;;25.03;52.04;101522.34;1045843;28;1114;-72
2022/06/17 20:38:53;;;;;;;;;;;;;;;25.04;51.93;101526.78;1043522;28;1083;-73
2022/06/17 20:39:43;;;;;;;;;;;;;;;25.01;52.05;101525.25;1045640;28;1099;-72
2022/06/17 20:40:34;;;;;;;;;;;;;;;25.00;52.32;101536.34;1041337;28;1104;-72
2022/06/17 20:41:24;;;;;;;;;;;;;;;25.00;52.37;101526.28;1042036;28;1067;-72
2022/06/17 20:42:14;;;;;;;;;;;;;;;24.99;52.43;101529.19;1035219;28;1060;-72
2022/06/17 20:43:05;;;;;;;;;;;;;;;24.98;52.20;101522.03;1041987;28;1222;-72
2022/06/17 20:43:55;;;;;;;;;;;;;;;24.96;52.26;101532.25;1041067;28;678;-73
2022/06/17 20:50:09;;;;;;;;;;;;;;;24.99;52.42;101521.00;1044392;28;1110;-73
2022/06/17 20:50:34;;;;;;;;;;;;;;;24.96;52.60;101524.06;1040638;28;1568;-73
2022/06/17 20:51:24;;;;;;;;;;;;;;;24.89;52.57;101522.06;1042363;28;1079;-77
2022/06/17 20:52:14;;;;;;;;;;;;;;;24.93;52.60;101522.53;1046318;28;1289;-76
2022/06/17 20:53:05;;;;;;;;;;;;;;;24.97;52.63;101518.44;1041102;28;1115;-76
2022/06/17 20:53:56;;;;;;;;;;;;;;;25.01;52.35;101518.94;1041049;28;1143;-75
2022/06/17 20:54:47;;;;;;;;;;;;;;;25.00;52.18;101517.25;1040409;28;1116;-75
2022/06/17 20:55:37;;;;;;;;;;;;;;;25.00;52.26;101517.25;1036763;28;1143;-75
2022/06/17 20:56:28;;;;;;;;;;;;;;;24.98;52.32;101522.88;1039145;28;1127;-74
2022/06/17 20:58:27;;;;;;;;;;;;;;;25.02;52.67;101524.22;1041271;28;1299;-74
2022/06/17 20:59:17;;;;;;;;;;;;;;;25.04;52.39;101521.34;1042814;28;1084;-74
2022/06/17 21:00:08;;;;;;;;;;;;;;;24.99;52.59;101521.00;1043148;28;1076;-74
2022/06/17 21:00:58;;;;;;;;;;;;;;;24.99;52.59;101519.13;1037998;28;1104;-74
2022/06/17 21:01:49;;;;;;;;;;;;;;;24.98;52.39;101522.88;1040547;28;1147;-75
2022/06/17 21:02:39;;;;;;;;;;;;;;;25.00;52.57;101518.09;1045256;28;1044;-74
2022/06/17 21:03:31;;;;;;;;;;;;;;;24.99;52.53;101521.00;1041126;28;658;-74
2022/06/17 21:04:45;;;;;;;;;;;;;;;25.01;52.54;101519.81;1040038;28;1166;-75
2022/06/17 21:05:34;;;;;;;;;;;;;;;25.05;52.33;101515.69;1042069;28;1111;-74
2022/06/17 21:06:25;;;;;;;;;;;;;;;25.03;52.46;101522.34;1041061;28;1076;-74
2022/06/17 21:07:16;;;;;;;;;;;;;;;25.02;52.40;101521.50;1041299;28;1180;-73
2022/06/17 21:08:06;;;;;;;;;;;;;;;25.06;52.17;101511.94;1045199;28;1890;-75
2022/06/17 21:08:57;;;;;;;;;;;;;;;25.08;52.33;101512.59;1043999;28;1252;-74
2022/06/17 21:09:47;;;;;;;;;;;;;;;25.02;52.30;101515.19;1045970;28;1369;-73
2022/06/17 21:10:37;;;;;;;;;;;;;;;25.03;52.24;101512.28;1045786;28;1265;-74
2022/06/17 21:11:28;;;;;;;;;;;;;;;24.98;52.44;101509.25;1043004;28;677;-73
2022/06/17 21:12:18;;;;;;;;;;;;;;;25.02;52.48;101505.16;1043595;28;1112;-74
2022/06/17 21:13:09;;;;;;;;;;;;;;;24.99;52.32;101507.38;1044514;28;1302;-74
2022/06/17 21:13:59;;;;;;;;;;;;;;;25.00;52.27;101512.66;1041889;28;681;-73
2022/06/17 21:14:49;;;;;;;;;;;;;;;25.00;52.26;101509.91;1041545;28;1197;-73
2022/06/17 21:15:40;;;;;;;;;;;;;;;24.99;52.33;101510.94;1036619;28;1339;-73
2022/06/17 21:16:30;;;;;;;;;;;;;;;24.98;52.20;101511.97;1041328;28;1203;-74
2022/06/17 21:17:21;;;;;;;;;;;;;;;24.97;52.27;101507.53;1044550;28;1180;-74
2022/06/17 21:18:11;;;;;;;;;;;;;;;24.95;52.45;101503.28;1040819;28;1355;-73
2022/06/17 21:19:05;;;;;;;;;;;;;;;24.93;52.30;101503.44;1040200;28;1145;-74
2022/06/17 21:19:56;;;;;;;;;;;;;;;24.95;52.40;101500.56;1045315;28;1164;-74
2022/06/17 21:20:46;;;;;;;;;;;;;;;24.91;52.38;101506.34;1044761;28;1176;-75
2022/06/17 21:21:37;;;;;;;;;;;;;;;24.91;52.36;101500.88;1044669;28;1156;-74
2022/06/17 21:22:35;;;;;;;;;;;;;;;24.91;52.26;101500.88;1043899;28;1454;-74
2022/06/17 21:23:25;;;;;;;;;;;;;;;24.89;52.49;101494.78;1044329;28;1306;-74
2022/06/17 21:24:15;;;;;;;;;;;;;;;24.89;52.25;101494.78;1040576;28;1168;-74
2022/06/17 21:25:06;;;;;;;;;;;;;;;24.89;52.26;101488.47;1039583;28;1149;-74
2022/06/17 21:25:56;;;;;;;;;;;;;;;24.91;51.99;101494.56;1043578;28;1097;-74
2022/06/17 21:26:47;;;;;;;;;;;;;;;24.88;52.39;101484.06;1044291;28;1220;-73
2022/06/17 21:27:37;;;;;;;;;;;;;;;24.86;52.28;101480.66;1044160;28;1274;-74
2022/06/17 21:28:29;;;;;;;;;;;;;;;24.84;52.43;101489.00;1045534;28;621;-73
2022/06/17 21:29:19;;;;;;;;;;;;;;;24.87;52.25;101488.66;1043553;28;1294;-73
2022/06/17 21:30:10;;;;;;;;;;;;;;;24.86;52.15;101488.81;1043889;28;1103;-74
2022/06/17 21:31:01;;;;;;;;;;;;;;;24.87;52.10;101482.34;1046338;28;1255;-74
2022/06/17 21:31:51;;;;;;;;;;;;;;;24.87;52.13;101482.34;1044478;28;1148;-72
2022/06/17 21:32:41;;;;;;;;;;;;;;;24.86;52.13;101481.50;1045114;28;1294;-73
2022/06/17 21:33:32;;;;;;;;;;;;;;;24.87;52.08;101485.06;1042410;28;685;-73
2022/06/17 21:34:22;;;;;;;;;;;;;;;24.85;52.32;101481.66;1039524;28;1212;-73
2022/06/17 21:35:13;;;;;;;;;;;;;;;24.87;52.03;101485.06;1041658;28;1259;-74
2022/06/17 21:36:03;;;;;;;;;;;;;;;24.86;52.20;101483.38;1042616;28;618;-73
2022/06/17 21:36:54;;;;;;;;;;;;;;;24.86;52.31;101484.22;1044829;28;1223;-74
2022/06/17 21:37:44;;;;;;;;;;;;;;;24.85;52.03;101481.66;1046139;28;1310;-73
2022/06/17 21:38:34;;;;;;;;;;;;;;;24.84;52.01;101480.81;1045093;28;1208;-73
2022/06/17 21:39:25;;;;;;;;;;;;;;;24.84;52.21;101483.53;1043241;28;1164;-73
2022/06/17 21:40:16;;;;;;;;;;;;;;;24.83;52.36;101484.56;1046037;28;1179;-73
2022/06/17 21:41:06;;;;;;;;;;;;;;;24.84;52.16;101479.97;1044596;28;1148;-73
2022/06/17 21:41:57;;;;;;;;;;;;;;;24.84;52.35;101474.50;1044965;28;1223;-73
2022/06/17 21:42:47;;;;;;;;;;;;;;;24.82;52.11;101484.75;1046095;28;1199;-74
2022/06/17 21:43:38;;;;;;;;;;;;;;;24.82;51.97;101482.88;1039932;28;1212;-73
2022/06/17 21:44:29;;;;;;;;;;;;;;;24.79;52.26;101475.03;1038787;28;1036;-73
2022/06/17 21:45:19;;;;;;;;;;;;;;;24.81;52.03;101481.16;1040138;28;1164;-73
2022/06/17 21:46:09;;;;;;;;;;;;;;;24.81;52.11;101473.00;1038415;28;1140;-74
2022/06/17 21:47:00;;;;;;;;;;;;;;;24.81;51.94;101474.88;1041417;28;1239;-74
2022/06/17 21:47:50;;;;;;;;;;;;;;;24.82;51.91;101482.03;1041817;28;1977;-75
2022/06/17 21:48:41;;;;;;;;;;;;;;;24.81;52.37;101474.88;1043785;28;1212;-76
2022/06/17 21:49:31;;;;;;;;;;;;;;;24.81;51.82;101470.25;1039995;28;1156;-75
2022/06/17 21:50:23;;;;;;;;;;;;;;;24.79;51.99;101472.31;1041288;28;1192;-75
2022/06/17 21:51:13;;;;;;;;;;;;;;;24.80;51.99;101473.16;1042092;28;634;-75
2022/06/17 21:52:04;;;;;;;;;;;;;;;24.78;52.14;101472.50;1043415;28;1562;-75
2022/06/17 21:52:54;;;;;;;;;;;;;;;24.78;52.09;101480.66;1040961;28;693;-75
2022/06/17 21:53:44;;;;;;;;;;;;;;;24.77;52.04;101470.78;1040239;28;606;-74
2022/06/17 21:54:36;;;;;;;;;;;;;;;24.77;52.07;101471.63;1042551;28;661;-74
2022/06/17 21:55:26;;;;;;;;;;;;;;;24.78;52.26;101472.50;1041535;28;649;-74
2022/06/17 21:56:17;;;;;;;;;;;;;;;24.79;52.04;101476.91;1041842;28;875;-74
2022/06/17 21:57:07;;;;;;;;;;;;;;;24.79;52.26;101472.31;1042579;28;684;-73
2022/06/17 21:57:58;;;;;;;;;;;;;;;24.77;52.14;101473.50;1041398;28;602;-74
2022/06/17 21:58:48;;;;;;;;;;;;;;;24.76;52.21;101467.22;1042263;28;616;-74
2022/06/17 21:59:38;;;;;;;;;;;;;;;24.74;52.36;101474.72;1041149;28;575;-74
2022/06/17 22:00:29;;;;;;;;;;;;;;;24.75;52.07;101459.19;1040864;28;618;-74
2022/06/17 22:01:19;;;;;;;;;;;;;;;24.76;52.10;101471.81;1042575;28;605;-74